createdAt,value
2023-02-18T00:01:32.587Z,83.75
2023-02-18T00:06:37.743Z,79.25
2023-02-18T00:11:42.358Z,83.50
2023-02-18T00:16:47.475Z,73.00
2023-02-18T00:21:52.150Z,72.00
2023-02-18T00:26:57.122Z,71.50
2023-02-18T00:32:01.917Z,71.75
2023-02-18T00:37:07.063Z,76.00
2023-02-18T00:42:11.731Z,78.75
2023-02-18T00:47:16.355Z,78.25
2023-02-18T00:52:20.914Z,82.50
2023-02-18T00:57:25.938Z,85.00
2023-02-18T01:02:30.113Z,150.00
2023-02-18T01:07:35.422Z,113.25
2023-02-18T01:12:39.711Z,127.75
2023-02-18T01:17:43.972Z,107.25
2023-02-18T01:22:48.347Z,121.25
2023-02-18T01:27:52.481Z,106.50
2023-02-18T01:32:57.876Z,92.00
2023-02-18T01:38:02.160Z,88.75
2023-02-18T01:43:06.304Z,84.25
2023-02-18T01:48:10.476Z,86.75
2023-02-18T01:53:20.316Z,112.50
2023-02-18T01:58:25.053Z,117.00
2023-02-18T02:03:29.222Z,126.00
2023-02-18T02:08:33.283Z,126.25
2023-02-18T02:13:51.505Z,122.75
2023-02-18T02:19:13.791Z,128.00
2023-02-18T02:24:36.263Z,121.50
2023-02-18T02:29:47.621Z,118.50
2023-02-18T02:35:10.053Z,118.25
2023-02-18T02:40:27.666Z,117.00
2023-02-18T02:45:33.780Z,115.00
2023-02-18T02:50:45.702Z,129.00
2023-02-18T02:55:51.216Z,125.50
2023-02-18T03:01:15.545Z,115.75
2023-02-18T03:06:22.875Z,127.50
2023-02-18T03:11:29.273Z,117.25
2023-02-18T03:16:36.720Z,125.50
2023-02-18T03:22:03.983Z,106.50
2023-02-18T03:27:19.305Z,113.25
2023-02-18T03:32:25.591Z,116.75
2023-02-18T03:37:30.399Z,112.50
2023-02-18T03:42:34.942Z,103.50
2023-02-18T03:47:39.690Z,102.75
2023-02-18T03:52:44.705Z,117.75
2023-02-18T03:57:48.776Z,117.25
2023-02-18T04:02:52.888Z,108.50
2023-02-18T04:07:57.087Z,108.00
2023-02-18T04:13:01.426Z,118.50
2023-02-18T04:18:05.555Z,108.25
2023-02-18T04:23:09.839Z,122.25
2023-02-18T04:28:15.621Z,93.50
2023-02-18T04:33:19.758Z,88.00
2023-02-18T04:38:23.890Z,120.25
2023-02-18T04:43:28.010Z,104.00
2023-02-18T04:48:32.456Z,101.75
2023-02-18T04:53:40.244Z,106.75
2023-02-18T04:58:47.777Z,102.75
2023-02-18T05:03:51.890Z,106.00
2023-02-18T05:08:56.235Z,104.50
2023-02-18T05:14:00.748Z,104.75
2023-02-18T05:19:04.901Z,100.75
2023-02-18T05:24:10.063Z,99.00
2023-02-18T05:29:15.070Z,106.00
2023-02-18T05:34:19.319Z,92.25
2023-02-18T05:39:23.579Z,101.50
2023-02-18T05:44:34.686Z,100.50
2023-02-18T05:49:40.179Z,101.00
2023-02-18T05:54:46.029Z,104.00
2023-02-18T05:59:50.325Z,104.00
2023-02-18T06:04:54.568Z,106.50
2023-02-18T06:09:58.905Z,96.25
2023-02-18T06:15:03.044Z,101.75
2023-02-18T06:20:07.443Z,93.75
2023-02-18T06:25:11.736Z,96.50
2023-02-18T06:30:16.343Z,101.25
2023-02-18T06:35:20.488Z,90.50
2023-02-18T06:40:24.531Z,105.75
2023-02-18T06:45:28.525Z,88.25
2023-02-18T06:50:32.523Z,96.00
2023-02-18T06:55:36.653Z,91.00
2023-02-18T07:00:40.878Z,96.25
2023-02-18T07:05:44.934Z,90.75
2023-02-18T07:10:49.357Z,83.75
2023-02-18T07:15:53.448Z,90.75
2023-02-18T07:20:58.005Z,85.75
2023-02-18T07:26:15.664Z,84.00
2023-02-18T07:31:20.715Z,83.75
2023-02-18T07:36:25.385Z,91.50
2023-02-18T07:41:30.059Z,86.25
2023-02-18T07:46:34.427Z,87.25
2023-02-18T07:51:41.668Z,82.50
2023-02-18T07:56:46.980Z,83.50
2023-02-18T08:01:51.613Z,78.50
2023-02-18T08:06:56.190Z,76.25
2023-02-18T08:12:00.852Z,71.25
2023-02-18T08:17:05.068Z,75.00
2023-02-18T08:22:10.469Z,72.75
2023-02-18T08:27:16.032Z,71.50
2023-02-18T08:32:20.643Z,67.25
2023-02-18T08:37:26.264Z,68.50
2023-02-18T08:42:30.691Z,69.50
2023-02-18T08:48:18.028Z,68.50
2023-02-18T08:53:01.712Z,69.75
2023-02-18T08:58:07.378Z,67.50
2023-02-18T09:03:16.026Z,63.00
2023-02-18T09:08:21.982Z,64.00
2023-02-18T09:13:28.745Z,62.25
2023-02-18T09:18:33.486Z,60.00
2023-02-18T09:23:38.142Z,59.00
2023-02-18T09:28:42.798Z,53.75
2023-02-18T09:33:49.350Z,58.75
2023-02-18T09:38:54.723Z,53.00
2023-02-18T09:44:01.615Z,55.75
2023-02-18T09:49:08.929Z,53.25
2023-02-18T09:54:16.160Z,60.00
2023-02-18T09:59:23.048Z,55.50
2023-02-18T10:04:33.334Z,55.50
2023-02-18T10:09:42.130Z,49.25
2023-02-18T10:14:50.228Z,42.25
2023-02-18T10:19:57.113Z,49.75
2023-02-18T10:25:04.352Z,43.75
2023-02-18T10:30:25.062Z,51.50
2023-02-18T10:35:29.937Z,53.50
2023-02-18T10:40:55.035Z,48.75
2023-02-18T10:46:02.818Z,47.00
2023-02-18T10:51:16.628Z,48.50
2023-02-18T10:56:38.138Z,50.00
2023-02-18T11:01:44.778Z,40.50
2023-02-18T11:06:53.732Z,49.00
2023-02-18T11:12:08.668Z,54.25
2023-02-18T11:17:22.135Z,47.25
2023-02-18T11:22:32.306Z,37.50
2023-02-18T11:27:43.423Z,38.75
2023-02-18T11:32:48.239Z,41.75
2023-02-18T11:37:53.330Z,27.75
2023-02-18T11:43:26.275Z,31.25
2023-02-18T11:48:31.285Z,32.25
2023-02-18T11:53:40.135Z,31.25
2023-02-18T11:58:46.158Z,32.00
2023-02-18T12:03:56.420Z,24.00
2023-02-18T12:09:07.409Z,28.50
2023-02-18T12:14:16.579Z,32.00
2023-02-18T12:19:39.322Z,25.00
2023-02-18T12:25:01.569Z,29.00
2023-02-18T12:30:11.931Z,33.00
2023-02-18T12:35:28.345Z,83.25
2023-02-18T12:40:32.490Z,58.75
2023-02-18T12:45:57.819Z,52.25
2023-02-18T12:51:07.830Z,52.00
2023-02-18T12:56:15.018Z,54.50
2023-02-18T13:01:34.279Z,49.00
2023-02-18T13:07:10.974Z,48.50
2023-02-18T13:12:33.043Z,49.50
2023-02-18T13:17:38.621Z,48.75
2023-02-18T13:22:43.097Z,45.50
2023-02-18T13:27:55.952Z,46.00
2023-02-18T13:33:06.394Z,42.00
2023-02-18T13:38:10.506Z,49.25
2023-02-18T13:43:29.983Z,42.00
2023-02-18T13:48:36.467Z,42.00
2023-02-18T13:53:44.050Z,30.75
2023-02-18T13:58:53.105Z,40.50
2023-02-18T14:03:59.376Z,39.75
2023-02-18T14:09:13.699Z,34.50
2023-02-18T14:14:17.988Z,37.50
2023-02-18T14:19:34.752Z,35.50
2023-02-18T14:24:48.792Z,30.75
2023-02-18T14:29:56.487Z,36.00
2023-02-18T14:35:10.245Z,34.00
2023-02-18T14:40:36.210Z,40.75
2023-02-18T14:45:40.800Z,35.75
2023-02-18T14:50:49.364Z,44.75
2023-02-18T14:56:04.257Z,49.75
2023-02-18T15:01:21.148Z,55.75
2023-02-18T15:06:37.646Z,60.50
2023-02-18T15:11:46.240Z,56.25
2023-02-18T15:16:51.595Z,50.00
2023-02-18T15:21:58.342Z,48.25
2023-02-18T15:27:13.172Z,51.25
2023-02-18T15:32:23.140Z,46.25
2023-02-18T15:37:28.096Z,52.75
2023-02-18T15:42:36.106Z,46.75
2023-02-18T15:47:44.341Z,44.25
2023-02-18T15:52:49.739Z,46.00
2023-02-18T15:57:56.030Z,39.75
2023-02-18T16:03:19.416Z,35.25
2023-02-18T16:08:30.295Z,42.50
2023-02-18T16:13:36.069Z,42.75
2023-02-18T16:18:41.963Z,43.50
2023-02-18T16:24:06.347Z,38.50
2023-02-18T16:29:15.821Z,44.25
2023-02-18T16:34:20.533Z,33.50
2023-02-18T16:39:24.895Z,42.25
2023-02-18T16:44:29.079Z,38.75
2023-02-18T16:49:34.127Z,34.25
2023-02-18T16:54:38.872Z,35.00
2023-02-18T16:59:43.547Z,32.50
2023-02-18T17:04:48.031Z,32.50
2023-02-18T17:09:53.071Z,41.00
2023-02-18T17:14:57.579Z,38.00
2023-02-18T17:20:01.734Z,35.25
2023-02-18T17:25:11.996Z,33.50
2023-02-18T17:30:17.097Z,32.25
2023-02-18T17:35:23.126Z,35.75
2023-02-18T17:40:29.305Z,27.00
2023-02-18T17:45:38.327Z,32.75
2023-02-18T17:50:42.998Z,32.75
2023-02-18T17:55:49.108Z,29.50
2023-02-18T18:00:55.770Z,32.25
2023-02-18T18:06:00.571Z,33.25
2023-02-18T18:11:04.952Z,33.75
2023-02-18T18:16:11.848Z,29.25
2023-02-18T18:21:34.296Z,26.00
2023-02-18T18:26:38.782Z,23.00
2023-02-18T18:31:43.883Z,32.75
2023-02-18T18:36:48.524Z,23.50
2023-02-18T18:41:53.669Z,25.50
2023-02-18T18:46:58.368Z,27.50
2023-02-18T18:52:02.668Z,26.50
2023-02-18T18:57:07.332Z,25.25
2023-02-18T19:02:17.282Z,21.00
2023-02-18T19:07:21.972Z,27.00
2023-02-18T19:12:26.648Z,26.25
2023-02-18T19:17:30.743Z,24.00
2023-02-18T19:22:35.857Z,22.25
2023-02-18T19:27:42.545Z,20.00
2023-02-18T19:32:47.721Z,22.25
2023-02-18T19:37:52.236Z,22.25
2023-02-18T19:42:56.998Z,18.50
2023-02-18T19:48:01.907Z,20.00
2023-02-18T19:53:06.630Z,23.75
2023-02-18T19:58:11.818Z,17.75
2023-02-18T20:03:16.615Z,19.00
2023-02-18T20:08:21.277Z,19.50
2023-02-18T20:13:25.533Z,23.75
2023-02-18T20:18:30.081Z,24.50
2023-02-18T20:23:34.952Z,20.00
2023-02-18T20:28:40.058Z,18.25
2023-02-18T20:33:44.901Z,18.50
2023-02-18T20:38:52.976Z,18.25
2023-02-18T20:43:59.932Z,24.00
2023-02-18T20:49:05.320Z,19.25
2023-02-18T20:54:11.253Z,16.25
2023-02-18T20:59:16.467Z,19.00
2023-02-18T21:04:21.690Z,16.50
2023-02-18T21:09:26.282Z,16.50
2023-02-18T21:14:30.678Z,18.50
2023-02-18T21:19:34.879Z,16.75
2023-02-18T21:24:39.297Z,19.00
2023-02-18T21:29:43.827Z,17.25
2023-02-18T21:34:48.487Z,18.00
2023-02-18T21:39:52.641Z,15.75
2023-02-18T21:44:57.696Z,17.00
2023-02-18T21:50:02.188Z,14.25
2023-02-18T21:55:06.966Z,15.50
2023-02-18T22:00:19.978Z,15.00
2023-02-18T22:05:27.303Z,16.00
2023-02-18T22:10:31.877Z,17.00
2023-02-18T22:15:36.203Z,18.00
2023-02-18T22:20:40.569Z,15.00
2023-02-18T22:25:44.984Z,20.25
2023-02-18T22:30:49.567Z,15.00
2023-02-18T22:35:54.078Z,16.25
2023-02-18T22:40:58.662Z,18.25
2023-02-18T22:46:04.401Z,16.00
2023-02-18T22:51:12.947Z,16.00
2023-02-18T22:56:19.558Z,15.50
2023-02-18T23:01:33.845Z,17.00
2023-02-18T23:06:39.363Z,18.50
2023-02-18T23:11:43.861Z,19.00
2023-02-18T23:17:07.504Z,14.25
2023-02-18T23:22:13.178Z,16.75
2023-02-18T23:27:18.160Z,17.00
2023-02-18T23:32:22.791Z,15.75
2023-02-18T23:37:45.388Z,18.75
2023-02-18T23:42:49.954Z,14.00
2023-02-18T23:47:54.274Z,14.00
2023-02-18T23:52:58.689Z,20.25
2023-02-18T23:58:03.140Z,19.00
